Terminal Aerodrome Forecast
Issued by NWS Central Illinois

Home | Current Version | Previous Version | Text Only | Print | Product List | Glossary On
Versions: 1 2 3 4 5 6 7 8 9 10 11 12 13 14 15 16 17 18 19 20 21 22 23 24 25 26 27 28 29
834
FTUS43 KILX 280528
TAFPIA
TAF
KPIA 280528Z 2806/2906 18010KT P6SM VCSH SCT015 BKN080
     FM280900 19011KT P6SM VCSH BKN025
     FM281400 20012KT P6SM SCT030 BKN060
     FM281800 20015G22KT P6SM BKN080
     FM290200 20009KT P6SM VCTS SCT040CB BKN110=

USA.gov is the U.S. government's official web portal to all federal, state and local government web resources and services.